sensor_id;sensor_type;location;lat;lon;timestamp;P1;durP1;ratioP1;P2;durP2;ratioP2
3959;SDS011;1994;48.640;8.894;2022-12-18T00:03:50;5.30;;;4.40;;
3959;SDS011;1994;48.640;8.894;2022-12-18T00:06:18;8.50;;;6.47;;
3959;SDS011;1994;48.640;8.894;2022-12-18T00:08:45;7.43;;;4.80;;
3959;SDS011;1994;48.640;8.894;2022-12-18T00:11:12;28.60;;;8.50;;
3959;SDS011;1994;48.640;8.894;2022-12-18T00:13:44;16.67;;;6.77;;
3959;SDS011;1994;48.640;8.894;2022-12-18T00:16:11;18.50;;;5.97;;
3959;SDS011;1994;48.640;8.894;2022-12-18T00:18:40;15.00;;;7.23;;
3959;SDS011;1994;48.640;8.894;2022-12-18T00:21:07;10.43;;;7.37;;
3959;SDS011;1994;48.640;8.894;2022-12-18T00:23:35;11.90;;;7.40;;
3959;SDS011;1994;48.640;8.894;2022-12-18T00:26:03;21.90;;;5.50;;
3959;SDS011;1994;48.640;8.894;2022-12-18T00:28:32;11.60;;;5.47;;
3959;SDS011;1994;48.640;8.894;2022-12-18T00:33:33;7.83;;;5.33;;
3959;SDS011;1994;48.640;8.894;2022-12-18T00:36:01;8.37;;;4.90;;
3959;SDS011;1994;48.640;8.894;2022-12-18T00:38:29;4.90;;;4.20;;
3959;SDS011;1994;48.640;8.894;2022-12-18T00:40:54;20.57;;;7.10;;
3959;SDS011;1994;48.640;8.894;2022-12-18T00:43:20;9.93;;;4.30;;
3959;SDS011;1994;48.640;8.894;2022-12-18T00:45:46;14.03;;;5.30;;
3959;SDS011;1994;48.640;8.894;2022-12-18T00:48:12;5.20;;;3.90;;
3959;SDS011;1994;48.640;8.894;2022-12-18T00:50:37;6.10;;;4.73;;
3959;SDS011;1994;48.640;8.894;2022-12-18T00:53:03;10.60;;;4.20;;
3959;SDS011;1994;48.640;8.894;2022-12-18T00:55:29;8.10;;;4.53;;
3959;SDS011;1994;48.640;8.894;2022-12-18T00:57:55;4.60;;;3.10;;
3959;SDS011;1994;48.640;8.894;2022-12-18T01:00:20;18.13;;;4.30;;
3959;SDS011;1994;48.640;8.894;2022-12-18T01:02:47;11.67;;;5.03;;
3959;SDS011;1994;48.640;8.894;2022-12-18T01:05:13;5.60;;;4.50;;
3959;SDS011;1994;48.640;8.894;2022-12-18T01:07:40;7.53;;;4.47;;
3959;SDS011;1994;48.640;8.894;2022-12-18T01:10:06;15.00;;;6.67;;
3959;SDS011;1994;48.640;8.894;2022-12-18T01:12:34;6.10;;;5.43;;
3959;SDS011;1994;48.640;8.894;2022-12-18T01:15:00;8.70;;;5.87;;
3959;SDS011;1994;48.640;8.894;2022-12-18T01:17:26;7.50;;;5.40;;
3959;SDS011;1994;48.640;8.894;2022-12-18T01:19:52;14.00;;;8.30;;
3959;SDS011;1994;48.640;8.894;2022-12-18T01:22:18;7.60;;;4.80;;
3959;SDS011;1994;48.640;8.894;2022-12-18T01:24:44;10.43;;;4.30;;
3959;SDS011;1994;48.640;8.894;2022-12-18T01:27:09;7.97;;;5.27;;
3959;SDS011;1994;48.640;8.894;2022-12-18T01:29:35;14.77;;;6.83;;
3959;SDS011;1994;48.640;8.894;2022-12-18T01:32:01;8.27;;;6.10;;
3959;SDS011;1994;48.640;8.894;2022-12-18T01:34:27;11.67;;;5.30;;
3959;SDS011;1994;48.640;8.894;2022-12-18T01:36:52;5.93;;;5.37;;
3959;SDS011;1994;48.640;8.894;2022-12-18T01:39:18;9.47;;;4.90;;
3959;SDS011;1994;48.640;8.894;2022-12-18T01:41:44;5.33;;;4.67;;
3959;SDS011;1994;48.640;8.894;2022-12-18T01:52:52;25.27;;;8.77;;
3959;SDS011;1994;48.640;8.894;2022-12-18T01:55:39;6.60;;;4.80;;
3959;SDS011;1994;48.640;8.894;2022-12-18T01:58:15;13.70;;;5.80;;
3959;SDS011;1994;48.640;8.894;2022-12-18T02:00:43;14.27;;;7.87;;
3959;SDS011;1994;48.640;8.894;2022-12-18T02:03:09;5.73;;;5.10;;
3959;SDS011;1994;48.640;8.894;2022-12-18T02:08:48;12.33;;;5.07;;
3959;SDS011;1994;48.640;8.894;2022-12-18T02:11:28;14.13;;;5.47;;
3959;SDS011;1994;48.640;8.894;2022-12-18T02:17:12;23.77;;;6.97;;
3959;SDS011;1994;48.640;8.894;2022-12-18T02:20:12;7.00;;;5.30;;
3959;SDS011;1994;48.640;8.894;2022-12-18T02:22:59;5.03;;;3.27;;
3959;SDS011;1994;48.640;8.894;2022-12-18T02:25:57;9.73;;;5.87;;
3959;SDS011;1994;48.640;8.894;2022-12-18T02:28:41;12.13;;;5.17;;
3959;SDS011;1994;48.640;8.894;2022-12-18T02:31:44;12.67;;;5.90;;
3959;SDS011;1994;48.640;8.894;2022-12-18T02:34:17;5.43;;;3.10;;
3959;SDS011;1994;48.640;8.894;2022-12-18T02:36:45;9.10;;;4.83;;
3959;SDS011;1994;48.640;8.894;2022-12-18T02:39:13;9.07;;;6.17;;
3959;SDS011;1994;48.640;8.894;2022-12-18T02:41:40;14.17;;;6.03;;
3959;SDS011;1994;48.640;8.894;2022-12-18T02:44:08;10.10;;;5.57;;
3959;SDS011;1994;48.640;8.894;2022-12-18T02:46:41;5.73;;;3.83;;
3959;SDS011;1994;48.640;8.894;2022-12-18T02:52:47;23.03;;;6.03;;
3959;SDS011;1994;48.640;8.894;2022-12-18T03:04:31;9.07;;;7.23;;
3959;SDS011;1994;48.640;8.894;2022-12-18T03:06:43;10.77;;;5.10;;
3959;SDS011;1994;48.640;8.894;2022-12-18T03:09:21;7.47;;;5.27;;
3959;SDS011;1994;48.640;8.894;2022-12-18T03:12:12;23.10;;;6.00;;
3959;SDS011;1994;48.640;8.894;2022-12-18T03:15:16;7.80;;;6.27;;
3959;SDS011;1994;48.640;8.894;2022-12-18T03:17:55;13.43;;;5.00;;
3959;SDS011;1994;48.640;8.894;2022-12-18T03:20:31;4.17;;;3.77;;
3959;SDS011;1994;48.640;8.894;2022-12-18T03:23:04;11.13;;;6.00;;
3959;SDS011;1994;48.640;8.894;2022-12-18T03:25:39;6.63;;;4.73;;
3959;SDS011;1994;48.640;8.894;2022-12-18T03:28:21;18.97;;;4.80;;
3959;SDS011;1994;48.640;8.894;2022-12-18T03:30:49;17.30;;;6.23;;
3959;SDS011;1994;48.640;8.894;2022-12-18T03:33:31;12.03;;;4.73;;
3959;SDS011;1994;48.640;8.894;2022-12-18T03:36:06;8.80;;;6.17;;
3959;SDS011;1994;48.640;8.894;2022-12-18T03:38:32;6.00;;;5.37;;
3959;SDS011;1994;48.640;8.894;2022-12-18T03:49:45;39.17;;;9.17;;
3959;SDS011;1994;48.640;8.894;2022-12-18T03:52:57;5.60;;;3.40;;
3959;SDS011;1994;48.640;8.894;2022-12-18T03:56:02;7.23;;;5.53;;
3959;SDS011;1994;48.640;8.894;2022-12-18T03:58:30;6.70;;;5.70;;
3959;SDS011;1994;48.640;8.894;2022-12-18T04:01:01;8.63;;;5.20;;
3959;SDS011;1994;48.640;8.894;2022-12-18T04:03:31;26.67;;;5.70;;
3959;SDS011;1994;48.640;8.894;2022-12-18T04:05:59;15.07;;;6.97;;
3959;SDS011;1994;48.640;8.894;2022-12-18T04:08:26;22.73;;;9.70;;
3959;SDS011;1994;48.640;8.894;2022-12-18T04:10:53;11.97;;;5.67;;
3959;SDS011;1994;48.640;8.894;2022-12-18T04:13:23;6.60;;;4.57;;
3959;SDS011;1994;48.640;8.894;2022-12-18T04:15:53;10.57;;;7.00;;
3959;SDS011;1994;48.640;8.894;2022-12-18T04:18:19;14.87;;;6.07;;
3959;SDS011;1994;48.640;8.894;2022-12-18T04:20:45;21.23;;;8.33;;
3959;SDS011;1994;48.640;8.894;2022-12-18T04:23:11;12.97;;;8.37;;
3959;SDS011;1994;48.640;8.894;2022-12-18T04:25:37;26.97;;;9.70;;
3959;SDS011;1994;48.640;8.894;2022-12-18T04:28:02;11.67;;;8.17;;
3959;SDS011;1994;48.640;8.894;2022-12-18T04:30:28;20.20;;;8.17;;
3959;SDS011;1994;48.640;8.894;2022-12-18T04:32:54;13.60;;;7.30;;
3959;SDS011;1994;48.640;8.894;2022-12-18T04:35:20;11.80;;;5.40;;
3959;SDS011;1994;48.640;8.894;2022-12-18T04:37:49;10.03;;;7.57;;
3959;SDS011;1994;48.640;8.894;2022-12-18T04:40:14;5.73;;;5.20;;
3959;SDS011;1994;48.640;8.894;2022-12-18T04:42:41;12.37;;;6.40;;
3959;SDS011;1994;48.640;8.894;2022-12-18T04:45:07;13.97;;;7.43;;
3959;SDS011;1994;48.640;8.894;2022-12-18T04:47:33;11.50;;;5.93;;
3959;SDS011;1994;48.640;8.894;2022-12-18T04:49:59;18.17;;;8.07;;
3959;SDS011;1994;48.640;8.894;2022-12-18T04:52:25;17.63;;;10.83;;
3959;SDS011;1994;48.640;8.894;2022-12-18T04:54:51;14.30;;;7.27;;
3959;SDS011;1994;48.640;8.894;2022-12-18T04:57:19;12.67;;;7.30;;
3959;SDS011;1994;48.640;8.894;2022-12-18T04:59:45;12.17;;;8.37;;
3959;SDS011;1994;48.640;8.894;2022-12-18T05:02:11;33.87;;;7.90;;
3959;SDS011;1994;48.640;8.894;2022-12-18T05:04:37;14.57;;;8.10;;
3959;SDS011;1994;48.640;8.894;2022-12-18T05:07:03;22.83;;;9.43;;
3959;SDS011;1994;48.640;8.894;2022-12-18T05:09:29;25.00;;;10.40;;
3959;SDS011;1994;48.640;8.894;2022-12-18T05:11:55;20.60;;;7.80;;
3959;SDS011;1994;48.640;8.894;2022-12-18T05:14:21;17.07;;;8.37;;
3959;SDS011;1994;48.640;8.894;2022-12-18T05:16:47;15.47;;;7.27;;
3959;SDS011;1994;48.640;8.894;2022-12-18T05:19:13;20.50;;;11.07;;
3959;SDS011;1994;48.640;8.894;2022-12-18T05:21:41;18.67;;;8.67;;
3959;SDS011;1994;48.640;8.894;2022-12-18T05:24:07;11.73;;;7.10;;
3959;SDS011;1994;48.640;8.894;2022-12-18T05:26:33;20.97;;;7.93;;
3959;SDS011;1994;48.640;8.894;2022-12-18T05:28:58;13.77;;;7.37;;
3959;SDS011;1994;48.640;8.894;2022-12-18T05:31:24;16.90;;;7.13;;
3959;SDS011;1994;48.640;8.894;2022-12-18T05:33:50;12.13;;;7.93;;
3959;SDS011;1994;48.640;8.894;2022-12-18T05:36:16;13.23;;;7.83;;
3959;SDS011;1994;48.640;8.894;2022-12-18T05:38:44;22.03;;;10.50;;
3959;SDS011;1994;48.640;8.894;2022-12-18T05:41:10;32.03;;;8.60;;
3959;SDS011;1994;48.640;8.894;2022-12-18T05:43:37;24.50;;;10.17;;
3959;SDS011;1994;48.640;8.894;2022-12-18T05:46:08;21.87;;;9.00;;
3959;SDS011;1994;48.640;8.894;2022-12-18T05:48:39;28.50;;;15.13;;
3959;SDS011;1994;48.640;8.894;2022-12-18T05:51:07;16.23;;;8.63;;
3959;SDS011;1994;48.640;8.894;2022-12-18T05:53:39;37.67;;;14.47;;
3959;SDS011;1994;48.640;8.894;2022-12-18T05:56:06;24.53;;;8.80;;
3959;SDS011;1994;48.640;8.894;2022-12-18T05:58:40;24.07;;;7.67;;
3959;SDS011;1994;48.640;8.894;2022-12-18T06:01:27;15.70;;;7.20;;
3959;SDS011;1994;48.640;8.894;2022-12-18T06:03:52;33.77;;;9.27;;
3959;SDS011;1994;48.640;8.894;2022-12-18T06:06:19;24.73;;;8.33;;
3959;SDS011;1994;48.640;8.894;2022-12-18T06:08:52;11.20;;;7.30;;
3959;SDS011;1994;48.640;8.894;2022-12-18T06:11:23;9.93;;;5.97;;
3959;SDS011;1994;48.640;8.894;2022-12-18T06:13:51;24.97;;;8.40;;
3959;SDS011;1994;48.640;8.894;2022-12-18T06:16:20;19.27;;;8.23;;
3959;SDS011;1994;48.640;8.894;2022-12-18T06:18:45;20.27;;;8.40;;
3959;SDS011;1994;48.640;8.894;2022-12-18T06:21:12;6.50;;;4.60;;
3959;SDS011;1994;48.640;8.894;2022-12-18T06:23:38;9.97;;;5.50;;
3959;SDS011;1994;48.640;8.894;2022-12-18T06:26:08;12.10;;;5.53;;
3959;SDS011;1994;48.640;8.894;2022-12-18T06:28:36;21.07;;;8.90;;
3959;SDS011;1994;48.640;8.894;2022-12-18T06:31:03;9.33;;;5.30;;
3959;SDS011;1994;48.640;8.894;2022-12-18T06:33:29;13.43;;;6.43;;
3959;SDS011;1994;48.640;8.894;2022-12-18T06:36:03;12.33;;;5.97;;
3959;SDS011;1994;48.640;8.894;2022-12-18T06:38:31;9.40;;;6.20;;
3959;SDS011;1994;48.640;8.894;2022-12-18T06:41:05;11.70;;;5.23;;
3959;SDS011;1994;48.640;8.894;2022-12-18T06:43:36;61.80;;;8.13;;
3959;SDS011;1994;48.640;8.894;2022-12-18T06:46:08;6.93;;;5.60;;
3959;SDS011;1994;48.640;8.894;2022-12-18T06:48:34;11.07;;;5.43;;
3959;SDS011;1994;48.640;8.894;2022-12-18T06:51:01;10.50;;;3.90;;
3959;SDS011;1994;48.640;8.894;2022-12-18T06:53:31;12.50;;;5.27;;
3959;SDS011;1994;48.640;8.894;2022-12-18T06:56:01;6.50;;;5.40;;
3959;SDS011;1994;48.640;8.894;2022-12-18T06:58:28;8.20;;;5.27;;
3959;SDS011;1994;48.640;8.894;2022-12-18T07:00:59;10.63;;;5.47;;
3959;SDS011;1994;48.640;8.894;2022-12-18T07:03:29;22.57;;;7.40;;
3959;SDS011;1994;48.640;8.894;2022-12-18T07:05:55;18.43;;;6.13;;
3959;SDS011;1994;48.640;8.894;2022-12-18T07:08:21;12.27;;;7.53;;
3959;SDS011;1994;48.640;8.894;2022-12-18T07:10:47;12.83;;;5.50;;
3959;SDS011;1994;48.640;8.894;2022-12-18T07:13:15;4.67;;;4.27;;
3959;SDS011;1994;48.640;8.894;2022-12-18T07:15:42;5.70;;;4.23;;
3959;SDS011;1994;48.640;8.894;2022-12-18T07:18:08;5.93;;;5.13;;
3959;SDS011;1994;48.640;8.894;2022-12-18T07:20:35;9.50;;;4.20;;
3959;SDS011;1994;48.640;8.894;2022-12-18T07:23:02;7.37;;;4.73;;
3959;SDS011;1994;48.640;8.894;2022-12-18T07:25:33;12.90;;;6.77;;
3959;SDS011;1994;48.640;8.894;2022-12-18T07:28:02;18.63;;;6.23;;
3959;SDS011;1994;48.640;8.894;2022-12-18T07:30:31;11.73;;;5.83;;
3959;SDS011;1994;48.640;8.894;2022-12-18T07:32:57;25.80;;;9.27;;
3959;SDS011;1994;48.640;8.894;2022-12-18T07:35:23;21.37;;;12.10;;
3959;SDS011;1994;48.640;8.894;2022-12-18T07:37:50;16.47;;;8.40;;
3959;SDS011;1994;48.640;8.894;2022-12-18T07:40:15;12.00;;;7.17;;
3959;SDS011;1994;48.640;8.894;2022-12-18T07:42:41;11.33;;;7.10;;
3959;SDS011;1994;48.640;8.894;2022-12-18T07:45:07;19.93;;;5.23;;
3959;SDS011;1994;48.640;8.894;2022-12-18T07:47:36;16.17;;;8.07;;
3959;SDS011;1994;48.640;8.894;2022-12-18T07:50:03;15.50;;;5.27;;
3959;SDS011;1994;48.640;8.894;2022-12-18T07:52:30;9.50;;;4.83;;
3959;SDS011;1994;48.640;8.894;2022-12-18T07:54:56;8.33;;;5.97;;
3959;SDS011;1994;48.640;8.894;2022-12-18T07:57:21;23.60;;;7.77;;
3959;SDS011;1994;48.640;8.894;2022-12-18T07:59:50;13.10;;;8.20;;
3959;SDS011;1994;48.640;8.894;2022-12-18T08:02:16;13.70;;;6.63;;
3959;SDS011;1994;48.640;8.894;2022-12-18T08:04:42;7.73;;;5.03;;
3959;SDS011;1994;48.640;8.894;2022-12-18T08:07:08;12.77;;;5.97;;
3959;SDS011;1994;48.640;8.894;2022-12-18T08:09:34;18.13;;;8.60;;
3959;SDS011;1994;48.640;8.894;2022-12-18T08:12:00;14.20;;;7.27;;
3959;SDS011;1994;48.640;8.894;2022-12-18T08:14:26;7.90;;;5.00;;
3959;SDS011;1994;48.640;8.894;2022-12-18T08:16:54;9.97;;;4.97;;
3959;SDS011;1994;48.640;8.894;2022-12-18T08:19:20;14.27;;;7.70;;
3959;SDS011;1994;48.640;8.894;2022-12-18T08:21:46;13.87;;;6.77;;
3959;SDS011;1994;48.640;8.894;2022-12-18T08:24:11;11.50;;;6.23;;
3959;SDS011;1994;48.640;8.894;2022-12-18T08:26:37;16.60;;;6.63;;
3959;SDS011;1994;48.640;8.894;2022-12-18T08:29:03;7.37;;;6.57;;
3959;SDS011;1994;48.640;8.894;2022-12-18T08:31:29;19.60;;;9.00;;
3959;SDS011;1994;48.640;8.894;2022-12-18T08:33:56;16.80;;;7.77;;
3959;SDS011;1994;48.640;8.894;2022-12-18T08:36:22;22.63;;;8.80;;
3959;SDS011;1994;48.640;8.894;2022-12-18T08:38:49;23.30;;;10.57;;
3959;SDS011;1994;48.640;8.894;2022-12-18T08:41:16;16.77;;;9.33;;
3959;SDS011;1994;48.640;8.894;2022-12-18T08:43:43;26.30;;;11.30;;
3959;SDS011;1994;48.640;8.894;2022-12-18T08:46:34;23.67;;;11.00;;
3959;SDS011;1994;48.640;8.894;2022-12-18T08:49:06;41.00;;;12.87;;
3959;SDS011;1994;48.640;8.894;2022-12-18T08:51:33;37.90;;;15.63;;
3959;SDS011;1994;48.640;8.894;2022-12-18T08:53:59;20.03;;;11.77;;
3959;SDS011;1994;48.640;8.894;2022-12-18T08:56:25;25.73;;;14.20;;
3959;SDS011;1994;48.640;8.894;2022-12-18T08:58:52;27.03;;;13.07;;
3959;SDS011;1994;48.640;8.894;2022-12-18T09:01:19;30.90;;;13.83;;
3959;SDS011;1994;48.640;8.894;2022-12-18T09:03:46;24.97;;;12.53;;
3959;SDS011;1994;48.640;8.894;2022-12-18T09:06:14;22.20;;;11.30;;
3959;SDS011;1994;48.640;8.894;2022-12-18T09:08:42;29.03;;;13.03;;
3959;SDS011;1994;48.640;8.894;2022-12-18T09:11:18;28.83;;;11.97;;
3959;SDS011;1994;48.640;8.894;2022-12-18T09:13:52;33.20;;;13.87;;
3959;SDS011;1994;48.640;8.894;2022-12-18T09:16:22;26.50;;;12.57;;
3959;SDS011;1994;48.640;8.894;2022-12-18T09:18:50;29.57;;;14.13;;
3959;SDS011;1994;48.640;8.894;2022-12-18T09:21:19;24.47;;;12.00;;
3959;SDS011;1994;48.640;8.894;2022-12-18T09:23:52;21.40;;;11.43;;
3959;SDS011;1994;48.640;8.894;2022-12-18T09:26:20;27.47;;;13.20;;
3959;SDS011;1994;48.640;8.894;2022-12-18T09:28:48;20.40;;;11.23;;
3959;SDS011;1994;48.640;8.894;2022-12-18T09:31:14;20.67;;;11.23;;
3959;SDS011;1994;48.640;8.894;2022-12-18T09:33:41;25.03;;;12.83;;
3959;SDS011;1994;48.640;8.894;2022-12-18T09:36:08;28.20;;;13.97;;
3959;SDS011;1994;48.640;8.894;2022-12-18T09:38:39;21.83;;;11.40;;
3959;SDS011;1994;48.640;8.894;2022-12-18T09:44:41;21.97;;;11.17;;
3959;SDS011;1994;48.640;8.894;2022-12-18T09:46:50;21.43;;;12.30;;
3959;SDS011;1994;48.640;8.894;2022-12-18T09:49:59;17.97;;;11.33;;
3959;SDS011;1994;48.640;8.894;2022-12-18T09:52:37;25.07;;;12.90;;
3959;SDS011;1994;48.640;8.894;2022-12-18T09:55:25;21.93;;;11.80;;
3959;SDS011;1994;48.640;8.894;2022-12-18T09:58:05;22.17;;;11.40;;
3959;SDS011;1994;48.640;8.894;2022-12-18T10:00:40;26.90;;;12.43;;
3959;SDS011;1994;48.640;8.894;2022-12-18T10:03:10;27.60;;;14.30;;
3959;SDS011;1994;48.640;8.894;2022-12-18T10:08:37;26.67;;;13.70;;
3959;SDS011;1994;48.640;8.894;2022-12-18T10:11:21;23.93;;;12.53;;
3959;SDS011;1994;48.640;8.894;2022-12-18T10:17:51;25.83;;;12.43;;
3959;SDS011;1994;48.640;8.894;2022-12-18T10:23:04;22.73;;;13.40;;
3959;SDS011;1994;48.640;8.894;2022-12-18T10:26:08;24.10;;;13.53;;
3959;SDS011;1994;48.640;8.894;2022-12-18T10:28:38;25.13;;;13.40;;
3959;SDS011;1994;48.640;8.894;2022-12-18T10:31:06;23.10;;;12.70;;
3959;SDS011;1994;48.640;8.894;2022-12-18T10:33:43;25.40;;;13.20;;
3959;SDS011;1994;48.640;8.894;2022-12-18T10:36:12;27.37;;;15.43;;
3959;SDS011;1994;48.640;8.894;2022-12-18T10:38:41;26.60;;;13.37;;
3959;SDS011;1994;48.640;8.894;2022-12-18T10:43:47;31.77;;;17.17;;
3959;SDS011;1994;48.640;8.894;2022-12-18T10:46:16;36.63;;;17.10;;
3959;SDS011;1994;48.640;8.894;2022-12-18T10:56:40;24.77;;;15.20;;
3959;SDS011;1994;48.640;8.894;2022-12-18T10:59:07;35.20;;;15.10;;
3959;SDS011;1994;48.640;8.894;2022-12-18T11:04:21;31.10;;;13.63;;
3959;SDS011;1994;48.640;8.894;2022-12-18T11:09:37;28.73;;;13.83;;
3959;SDS011;1994;48.640;8.894;2022-12-18T11:12:15;26.53;;;14.57;;
3959;SDS011;1994;48.640;8.894;2022-12-18T11:17:22;21.23;;;13.27;;
3959;SDS011;1994;48.640;8.894;2022-12-18T11:19:59;26.00;;;13.87;;
3959;SDS011;1994;48.640;8.894;2022-12-18T11:22:59;22.53;;;13.17;;
3959;SDS011;1994;48.640;8.894;2022-12-18T11:25:37;29.90;;;14.37;;
3959;SDS011;1994;48.640;8.894;2022-12-18T11:31:12;23.97;;;14.40;;
3959;SDS011;1994;48.640;8.894;2022-12-18T11:34:31;24.90;;;13.73;;
3959;SDS011;1994;48.640;8.894;2022-12-18T11:36:38;20.97;;;14.17;;
3959;SDS011;1994;48.640;8.894;2022-12-18T11:42:22;25.57;;;13.70;;
3959;SDS011;1994;48.640;8.894;2022-12-18T11:53:01;24.87;;;13.97;;
3959;SDS011;1994;48.640;8.894;2022-12-18T11:56:30;25.53;;;13.40;;
3959;SDS011;1994;48.640;8.894;2022-12-18T12:10:53;25.50;;;14.53;;
3959;SDS011;1994;48.640;8.894;2022-12-18T12:14:56;31.23;;;15.27;;
3959;SDS011;1994;48.640;8.894;2022-12-18T12:28:19;31.17;;;17.17;;
3959;SDS011;1994;48.640;8.894;2022-12-18T12:31:15;32.33;;;15.73;;
3959;SDS011;1994;48.640;8.894;2022-12-18T12:39:34;25.17;;;12.97;;
3959;SDS011;1994;48.640;8.894;2022-12-18T12:42:11;21.70;;;13.53;;
3959;SDS011;1994;48.640;8.894;2022-12-18T12:45:23;21.80;;;12.60;;
3959;SDS011;1994;48.640;8.894;2022-12-18T12:51:15;25.67;;;12.53;;
3959;SDS011;1994;48.640;8.894;2022-12-18T12:53:46;26.97;;;12.57;;
3959;SDS011;1994;48.640;8.894;2022-12-18T12:56:13;34.27;;;16.20;;
3959;SDS011;1994;48.640;8.894;2022-12-18T13:10:34;24.03;;;11.63;;
3959;SDS011;1994;48.640;8.894;2022-12-18T13:15:37;33.33;;;17.83;;
3959;SDS011;1994;48.640;8.894;2022-12-18T13:18:29;27.23;;;15.93;;
3959;SDS011;1994;48.640;8.894;2022-12-18T13:25:51;28.87;;;14.43;;
3959;SDS011;1994;48.640;8.894;2022-12-18T13:31:01;21.70;;;13.97;;
3959;SDS011;1994;48.640;8.894;2022-12-18T13:38:41;31.30;;;14.57;;
3959;SDS011;1994;48.640;8.894;2022-12-18T13:43:44;19.80;;;12.97;;
3959;SDS011;1994;48.640;8.894;2022-12-18T13:46:28;25.43;;;15.33;;
3959;SDS011;1994;48.640;8.894;2022-12-18T13:51:43;25.30;;;12.53;;
3959;SDS011;1994;48.640;8.894;2022-12-18T13:57:01;22.60;;;13.30;;
3959;SDS011;1994;48.640;8.894;2022-12-18T13:59:36;28.37;;;13.30;;
3959;SDS011;1994;48.640;8.894;2022-12-18T14:02:13;34.80;;;15.77;;
3959;SDS011;1994;48.640;8.894;2022-12-18T14:04:44;24.33;;;13.53;;
3959;SDS011;1994;48.640;8.894;2022-12-18T14:10:00;30.20;;;15.17;;
3959;SDS011;1994;48.640;8.894;2022-12-18T14:12:28;27.23;;;13.07;;
3959;SDS011;1994;48.640;8.894;2022-12-18T14:17:51;29.43;;;14.20;;
3959;SDS011;1994;48.640;8.894;2022-12-18T14:20:24;27.80;;;13.90;;
3959;SDS011;1994;48.640;8.894;2022-12-18T14:22:52;37.00;;;15.50;;
3959;SDS011;1994;48.640;8.894;2022-12-18T14:25:22;22.50;;;11.63;;
3959;SDS011;1994;48.640;8.894;2022-12-18T14:33:11;25.23;;;13.23;;
3959;SDS011;1994;48.640;8.894;2022-12-18T14:36:01;28.17;;;14.43;;
3959;SDS011;1994;48.640;8.894;2022-12-18T14:41:05;22.97;;;12.07;;
3959;SDS011;1994;48.640;8.894;2022-12-18T14:43:39;28.43;;;12.97;;
3959;SDS011;1994;48.640;8.894;2022-12-18T14:49:04;22.60;;;13.50;;
3959;SDS011;1994;48.640;8.894;2022-12-18T14:51:50;26.00;;;13.90;;
3959;SDS011;1994;48.640;8.894;2022-12-18T14:54:22;22.37;;;14.63;;
3959;SDS011;1994;48.640;8.894;2022-12-18T14:57:36;34.67;;;14.00;;
3959;SDS011;1994;48.640;8.894;2022-12-18T15:00:11;22.70;;;12.17;;
3959;SDS011;1994;48.640;8.894;2022-12-18T15:02:46;26.23;;;12.27;;
3959;SDS011;1994;48.640;8.894;2022-12-18T15:07:57;24.90;;;10.90;;
3959;SDS011;1994;48.640;8.894;2022-12-18T15:10:28;26.80;;;13.97;;
3959;SDS011;1994;48.640;8.894;2022-12-18T15:20:41;30.83;;;14.20;;
3959;SDS011;1994;48.640;8.894;2022-12-18T15:23:17;28.20;;;14.50;;
3959;SDS011;1994;48.640;8.894;2022-12-18T15:25:43;26.47;;;14.63;;
3959;SDS011;1994;48.640;8.894;2022-12-18T15:36:24;27.83;;;13.73;;
3959;SDS011;1994;48.640;8.894;2022-12-18T15:38:55;31.43;;;11.83;;
3959;SDS011;1994;48.640;8.894;2022-12-18T15:41:22;23.10;;;12.80;;
3959;SDS011;1994;48.640;8.894;2022-12-18T15:43:49;21.73;;;12.40;;
3959;SDS011;1994;48.640;8.894;2022-12-18T15:46:18;22.27;;;12.30;;
3959;SDS011;1994;48.640;8.894;2022-12-18T15:48:50;19.60;;;11.80;;
3959;SDS011;1994;48.640;8.894;2022-12-18T15:51:29;31.60;;;14.43;;
3959;SDS011;1994;48.640;8.894;2022-12-18T15:54:02;25.83;;;12.93;;
3959;SDS011;1994;48.640;8.894;2022-12-18T15:56:33;23.77;;;11.93;;
3959;SDS011;1994;48.640;8.894;2022-12-18T15:59:19;24.57;;;11.33;;
3959;SDS011;1994;48.640;8.894;2022-12-18T16:01:46;23.43;;;13.00;;
3959;SDS011;1994;48.640;8.894;2022-12-18T16:04:16;31.87;;;15.77;;
3959;SDS011;1994;48.640;8.894;2022-12-18T16:06:48;30.27;;;13.87;;
3959;SDS011;1994;48.640;8.894;2022-12-18T16:09:14;31.13;;;14.20;;
3959;SDS011;1994;48.640;8.894;2022-12-18T16:11:41;30.70;;;13.70;;
3959;SDS011;1994;48.640;8.894;2022-12-18T16:16:52;27.90;;;13.50;;
3959;SDS011;1994;48.640;8.894;2022-12-18T16:19:24;23.43;;;10.93;;
3959;SDS011;1994;48.640;8.894;2022-12-18T16:21:51;15.13;;;8.73;;
3959;SDS011;1994;48.640;8.894;2022-12-18T16:24:20;25.37;;;9.60;;
3959;SDS011;1994;48.640;8.894;2022-12-18T16:26:56;19.70;;;9.40;;
3959;SDS011;1994;48.640;8.894;2022-12-18T16:29:24;14.27;;;8.50;;
3959;SDS011;1994;48.640;8.894;2022-12-18T16:31:59;18.30;;;10.50;;
3959;SDS011;1994;48.640;8.894;2022-12-18T16:34:32;17.27;;;8.83;;
3959;SDS011;1994;48.640;8.894;2022-12-18T16:37:00;21.03;;;11.27;;
3959;SDS011;1994;48.640;8.894;2022-12-18T16:39:29;23.20;;;10.60;;
3959;SDS011;1994;48.640;8.894;2022-12-18T16:41:59;24.90;;;9.90;;
3959;SDS011;1994;48.640;8.894;2022-12-18T16:44:29;20.57;;;11.40;;
3959;SDS011;1994;48.640;8.894;2022-12-18T16:46:56;20.03;;;12.00;;
3959;SDS011;1994;48.640;8.894;2022-12-18T16:49:26;25.03;;;12.70;;
3959;SDS011;1994;48.640;8.894;2022-12-18T16:51:53;28.20;;;13.10;;
3959;SDS011;1994;48.640;8.894;2022-12-18T16:54:19;26.70;;;12.60;;
3959;SDS011;1994;48.640;8.894;2022-12-18T16:56:45;26.70;;;14.80;;
3959;SDS011;1994;48.640;8.894;2022-12-18T16:59:14;34.63;;;16.33;;
3959;SDS011;1994;48.640;8.894;2022-12-18T17:01:40;24.37;;;13.30;;
3959;SDS011;1994;48.640;8.894;2022-12-18T17:04:07;28.17;;;13.47;;
3959;SDS011;1994;48.640;8.894;2022-12-18T17:06:34;25.27;;;14.00;;
3959;SDS011;1994;48.640;8.894;2022-12-18T17:09:06;23.20;;;13.13;;
3959;SDS011;1994;48.640;8.894;2022-12-18T17:11:35;23.10;;;12.77;;
3959;SDS011;1994;48.640;8.894;2022-12-18T17:14:05;27.80;;;13.10;;
3959;SDS011;1994;48.640;8.894;2022-12-18T17:16:33;26.23;;;14.77;;
3959;SDS011;1994;48.640;8.894;2022-12-18T17:18:59;31.53;;;15.20;;
3959;SDS011;1994;48.640;8.894;2022-12-18T17:21:25;30.07;;;14.20;;
3959;SDS011;1994;48.640;8.894;2022-12-18T17:23:51;36.87;;;15.50;;
3959;SDS011;1994;48.640;8.894;2022-12-18T17:26:17;32.43;;;16.83;;
3959;SDS011;1994;48.640;8.894;2022-12-18T17:28:43;38.67;;;17.53;;
3959;SDS011;1994;48.640;8.894;2022-12-18T17:31:10;30.23;;;14.33;;
3959;SDS011;1994;48.640;8.894;2022-12-18T17:33:47;28.43;;;15.40;;
3959;SDS011;1994;48.640;8.894;2022-12-18T17:36:14;25.10;;;13.53;;
3959;SDS011;1994;48.640;8.894;2022-12-18T17:38:53;26.10;;;14.33;;
3959;SDS011;1994;48.640;8.894;2022-12-18T17:41:22;25.37;;;13.43;;
3959;SDS011;1994;48.640;8.894;2022-12-18T17:43:56;28.83;;;15.37;;
3959;SDS011;1994;48.640;8.894;2022-12-18T17:46:26;17.37;;;11.03;;
3959;SDS011;1994;48.640;8.894;2022-12-18T17:48:57;26.47;;;13.67;;
3959;SDS011;1994;48.640;8.894;2022-12-18T17:51:24;20.17;;;12.90;;
3959;SDS011;1994;48.640;8.894;2022-12-18T17:53:51;20.27;;;13.50;;
3959;SDS011;1994;48.640;8.894;2022-12-18T17:56:18;26.83;;;12.80;;
3959;SDS011;1994;48.640;8.894;2022-12-18T17:58:46;24.63;;;12.30;;
3959;SDS011;1994;48.640;8.894;2022-12-18T18:01:15;28.97;;;14.30;;
3959;SDS011;1994;48.640;8.894;2022-12-18T18:03:47;19.27;;;12.30;;
3959;SDS011;1994;48.640;8.894;2022-12-18T18:06:13;24.30;;;12.60;;
3959;SDS011;1994;48.640;8.894;2022-12-18T18:08:40;19.93;;;13.13;;
3959;SDS011;1994;48.640;8.894;2022-12-18T18:11:06;30.87;;;14.27;;
3959;SDS011;1994;48.640;8.894;2022-12-18T18:14:10;30.43;;;13.27;;
3959;SDS011;1994;48.640;8.894;2022-12-18T18:16:42;29.70;;;14.93;;
3959;SDS011;1994;48.640;8.894;2022-12-18T18:19:12;27.10;;;12.17;;
3959;SDS011;1994;48.640;8.894;2022-12-18T18:21:44;40.07;;;15.80;;
3959;SDS011;1994;48.640;8.894;2022-12-18T18:24:13;31.73;;;15.27;;
3959;SDS011;1994;48.640;8.894;2022-12-18T18:26:42;29.63;;;16.60;;
3959;SDS011;1994;48.640;8.894;2022-12-18T18:29:14;24.10;;;12.90;;
3959;SDS011;1994;48.640;8.894;2022-12-18T18:31:43;25.87;;;14.03;;
3959;SDS011;1994;48.640;8.894;2022-12-18T18:34:16;21.87;;;13.80;;